Time;durP1;ratioP1;P1;durP2;ratioP2;P2;SDS_P1;SDS_P2;PMS_P1;PMS_P2;Temp;Humidity;BMP_temperature;BMP_pressure;BME280_temperature;BME280_humidity;BME280_pressure;Samples;Min_cycle;Max_cycle;Signal;HPM_P1;HPM_P2
2022/06/22 00:02:35;;;;;;;2.40;1.45;;;24.20;64.00;;;;;;6324361;28;20051;-78
2022/06/22 00:05:40;;;;;;;4.90;1.27;;;24.10;63.90;;;;;;6324985;28;20040;-80
2022/06/22 00:08:46;;;;;;;4.03;1.50;;;24.10;63.70;;;;;;6324825;28;20058;-81
2022/06/22 00:11:48;;;;;;;4.88;1.35;;;24.10;63.10;;;;;;6322507;28;20051;-80
2022/06/22 00:14:54;;;;;;;2.47;1.10;;;24.10;61.90;;;;;;6325284;28;20052;-81
2022/06/22 00:17:56;;;;;;;4.65;1.67;;;24.00;60.60;;;;;;6324273;28;20044;-81
2022/06/22 00:21:00;;;;;;;7.18;1.42;;;23.90;60.50;;;;;;6324882;28;20051;-81
2022/06/22 00:24:04;;;;;;;2.78;1.20;;;23.80;60.00;;;;;;6324954;28;20043;-80
2022/06/22 00:27:21;;;;;;;2.28;1.30;;;23.80;59.90;;;;;;6326054;28;20052;-81
2022/06/22 00:30:28;;;;;;;4.22;1.38;;;23.80;59.20;;;;;;6324938;28;20055;-81
2022/06/22 00:33:31;;;;;;;5.18;2.00;;;23.80;59.20;;;;;;6324648;28;20048;-80
2022/06/22 00:36:37;;;;;;;4.35;1.10;;;23.70;59.90;;;;;;6325553;28;20051;-81
2022/06/22 00:39:42;;;;;;;5.38;1.40;;;23.60;60.20;;;;;;6329825;28;20417;-81
2022/06/22 00:42:49;;;;;;;1.45;0.73;;;23.60;60.10;;;;;;6330133;28;20075;-80
2022/06/22 00:45:52;;;;;;;4.72;1.00;;;23.50;60.00;;;;;;6330339;28;20131;-81
2022/06/22 00:48:56;;;;;;;5.20;1.45;;;23.50;58.80;;;;;;6330349;28;20054;-81
2022/06/22 00:52:01;;;;;;;2.58;1.10;;;23.30;58.40;;;;;;6330483;28;20044;-81
2022/06/22 00:55:04;;;;;;;6.88;1.13;;;23.10;58.40;;;;;;6330665;28;20436;-81
2022/06/22 00:58:19;;;;;;;1.65;1.10;;;23.00;58.50;;;;;;6330354;28;20051;-81
2022/06/22 01:01:25;;;;;;;4.00;1.17;;;22.80;58.80;;;;;;6329836;28;20052;-80
2022/06/22 01:04:35;;;;;;;6.00;1.92;;;22.70;59.40;;;;;;6330104;28;20048;-81
2022/06/22 01:07:44;;;;;;;9.10;3.22;;;22.70;59.60;;;;;;6331076;28;20048;-81
2022/06/22 01:10:52;;;;;;;4.82;1.23;;;22.80;59.80;;;;;;6334360;28;20048;-81
2022/06/22 01:13:58;;;;;;;4.47;1.30;;;22.90;60.00;;;;;;6332926;28;20052;-82
2022/06/22 01:17:02;;;;;;;2.63;1.13;;;22.90;59.70;;;;;;6333192;28;20054;-82
2022/06/22 01:20:11;;;;;;;2.33;1.02;;;23.00;59.50;;;;;;6333011;28;20609;-82
2022/06/22 01:23:58;;;;;;;3.47;1.15;;;23.00;59.20;;;;;;6333593;28;20052;-83
2022/06/22 01:27:24;;;;;;;5.25;1.25;;;23.00;59.10;;;;;;6206375;28;20065;-82
2022/06/22 01:30:32;;;;;;;4.90;1.30;;;23.10;59.10;;;;;;6212791;28;20053;-81
2022/06/22 01:33:36;;;;;;;4.28;1.10;;;23.10;59.20;;;;;;6332202;28;20067;-82
2022/06/22 01:36:40;;;;;;;5.13;1.17;;;23.20;59.10;;;;;;6332276;28;20048;-81
2022/06/22 01:39:42;;;;;;;4.70;1.02;;;23.20;59.30;;;;;;6331956;28;20051;-81
2022/06/22 01:42:51;;;;;;;2.55;1.05;;;23.00;61.10;;;;;;6332080;28;20044;-81
2022/06/22 01:45:59;;;;;;;8.57;1.25;;;22.60;62.90;;;;;;6331437;28;20048;-81
2022/06/22 01:49:06;;;;;;;9.75;1.25;;;22.30;63.40;;;;;;6329530;28;20531;-81
2022/06/22 01:52:13;;;;;;;5.38;1.80;;;22.20;63.60;;;;;;6331489;28;20051;-81
2022/06/22 01:55:25;;;;;;;1.77;1.02;;;22.20;63.70;;;;;;6331330;28;20486;-80
2022/06/22 01:58:46;;;;;;;2.65;0.98;;;22.20;63.30;;;;;;6331118;28;20068;-81
2022/06/22 02:01:53;;;;;;;8.13;1.45;;;22.10;64.30;;;;;;6330357;28;20070;-82
2022/06/22 02:05:00;;;;;;;3.60;1.05;;;22.00;64.50;;;;;;6330799;28;20071;-81
2022/06/22 02:08:09;;;;;;;3.87;1.00;;;22.00;64.80;;;;;;6330057;28;20085;-82
2022/06/22 02:11:14;;;;;;;4.43;1.30;;;21.80;64.90;;;;;;6330182;28;20067;-82
2022/06/22 02:14:25;;;;;;;2.65;0.95;;;21.80;65.20;;;;;;6330185;28;20071;-81
2022/06/22 02:17:31;;;;;;;9.35;1.38;;;21.60;65.60;;;;;;6329871;28;20053;-81
2022/06/22 02:20:37;;;;;;;1.58;0.90;;;21.50;66.20;;;;;;6329935;28;20058;-81
2022/06/22 02:23:39;;;;;;;2.10;1.08;;;21.30;67.30;;;;;;6330799;28;20040;-81
2022/06/22 02:26:45;;;;;;;4.50;1.30;;;21.20;67.70;;;;;;6330474;28;20040;-81
2022/06/22 02:29:51;;;;;;;3.90;1.50;;;21.20;68.20;;;;;;6330331;28;20050;-81
2022/06/22 02:32:53;;;;;;;3.75;1.48;;;21.10;68.80;;;;;;6329709;28;20479;-82
2022/06/22 02:35:59;;;;;;;4.03;1.90;;;21.10;69.10;;;;;;6330476;28;20531;-81
2022/06/22 02:39:03;;;;;;;2.15;1.20;;;21.10;69.80;;;;;;6330454;28;20143;-80
2022/06/22 02:45:27;;;;;;;2.63;1.23;;;20.90;71.00;;;;;;6288359;28;20055;-81
2022/06/22 02:48:33;;;;;;;4.18;1.45;;;20.90;71.30;;;;;;6329898;28;20520;-81
2022/06/22 02:51:40;;;;;;;2.67;1.48;;;20.90;71.30;;;;;;6332844;28;20055;-80
2022/06/22 02:54:47;;;;;;;8.95;1.58;;;20.80;71.60;;;;;;6342056;28;20048;-82
2022/06/22 02:57:59;;;;;;;3.38;1.48;;;20.80;72.40;;;;;;6332003;28;20051;-81
2022/06/22 03:01:05;;;;;;;2.67;1.35;;;20.70;73.10;;;;;;6331075;28;20044;-81
2022/06/22 03:04:11;;;;;;;3.00;1.10;;;20.60;73.70;;;;;;6339852;28;20066;-80
2022/06/22 03:07:14;;;;;;;3.00;1.33;;;20.60;74.00;;;;;;6327207;28;20066;-81
2022/06/22 03:10:25;;;;;;;2.72;1.25;;;20.50;74.50;;;;;;6327370;28;20550;-81
2022/06/22 03:13:32;;;;;;;3.40;1.30;;;20.40;75.10;;;;;;6327246;28;20066;-81
2022/06/22 03:16:38;;;;;;;10.70;1.65;;;20.40;75.30;;;;;;6326704;28;20406;-81
2022/06/22 03:19:45;;;;;;;2.92;1.60;;;20.30;75.30;;;;;;6327096;28;20044;-81
2022/06/22 03:22:52;;;;;;;3.85;1.38;;;20.30;75.70;;;;;;6326646;28;20048;-82
2022/06/22 03:26:01;;;;;;;2.65;1.30;;;20.30;76.10;;;;;;6326296;28;20070;-82
2022/06/22 03:29:08;;;;;;;2.03;1.25;;;20.20;76.10;;;;;;6325977;28;20054;-80
2022/06/22 03:32:18;;;;;;;3.83;1.40;;;20.20;76.60;;;;;;6326661;28;20054;-80
2022/06/22 03:35:25;;;;;;;2.38;1.30;;;20.30;76.70;;;;;;6327139;28;20490;-81
2022/06/22 03:38:31;;;;;;;6.03;1.55;;;20.40;76.20;;;;;;6327031;28;20530;-80
2022/06/22 03:41:38;;;;;;;5.50;1.65;;;20.50;75.90;;;;;;6326274;28;20048;-80
2022/06/22 03:44:43;;;;;;;9.57;1.85;;;20.60;75.80;;;;;;6327213;28;20050;-81
2022/06/22 03:47:54;;;;;;;4.90;1.33;;;20.60;75.30;;;;;;6326811;28;20048;-81
2022/06/22 03:51:00;;;;;;;3.35;1.27;;;20.60;74.50;;;;;;6327057;28;20051;-81
2022/06/22 03:54:09;;;;;;;5.38;2.03;;;20.80;73.90;;;;;;6326027;28;20052;-81
2022/06/22 03:57:16;;;;;;;2.67;1.20;;;20.90;73.20;;;;;;6325389;28;20044;-80
2022/06/22 04:00:19;;;;;;;3.63;0.82;;;21.00;72.90;;;;;;6325748;28;20056;-80
2022/06/22 04:03:22;;;;;;;5.78;1.23;;;21.10;72.10;;;;;;6326124;28;20044;-81
2022/06/22 04:06:30;;;;;;;2.33;1.38;;;21.20;71.30;;;;;;6325125;28;20051;-80
2022/06/22 04:09:32;;;;;;;4.65;1.40;;;21.30;71.00;;;;;;6324789;28;20040;-80
2022/06/22 04:12:39;;;;;;;5.95;1.23;;;21.40;70.50;;;;;;6325494;28;20044;-81
2022/06/22 04:15:49;;;;;;;2.57;0.70;;;21.50;69.70;;;;;;6324786;28;20055;-79
2022/06/22 04:18:57;;;;;;;4.10;1.20;;;21.60;69.10;;;;;;6325237;28;20565;-81
2022/06/22 04:22:02;;;;;;;8.73;1.45;;;21.60;68.20;;;;;;6325159;28;20041;-80
2022/06/22 04:25:19;;;;;;;3.13;1.23;;;21.60;67.80;;;;;;6325344;28;20052;-81
2022/06/22 04:28:22;;;;;;;2.58;1.02;;;21.70;67.50;;;;;;6325101;28;20408;-81
2022/06/22 04:31:28;;;;;;;4.70;1.15;;;21.70;67.40;;;;;;6325735;28;20059;-81
2022/06/22 04:34:37;;;;;;;1.85;1.20;;;21.70;66.60;;;;;;6324531;28;20044;-81
2022/06/22 04:37:42;;;;;;;4.15;1.20;;;21.80;66.70;;;;;;6325068;28;20048;-80
2022/06/22 04:40:53;;;;;;;2.95;1.17;;;21.90;66.50;;;;;;6325077;28;20051;-80
2022/06/22 04:43:56;;;;;;;3.42;1.08;;;21.90;66.20;;;;;;6324902;28;20048;-82
2022/06/22 04:47:12;;;;;;;3.65;1.17;;;22.00;66.30;;;;;;6325726;28;20052;-81
2022/06/22 04:50:15;;;;;;;7.47;1.83;;;22.10;65.80;;;;;;6324334;28;20071;-82
2022/06/22 04:53:21;;;;;;;2.15;0.98;;;22.20;65.40;;;;;;6325264;28;20055;-82
2022/06/22 04:56:29;;;;;;;2.13;1.02;;;22.20;65.60;;;;;;6324954;28;20044;-81
2022/06/22 04:59:32;;;;;;;10.63;4.60;;;22.30;65.70;;;;;;6325487;28;20048;-82
2022/06/22 05:02:40;;;;;;;4.95;1.63;;;22.40;65.20;;;;;;6325064;28;20036;-82
2022/06/22 05:05:43;;;;;;;6.13;1.27;;;22.50;64.80;;;;;;6324614;28;20056;-81
2022/06/22 05:08:53;;;;;;;3.40;0.98;;;22.60;64.30;;;;;;6324373;28;20505;-80
2022/06/22 05:11:54;;;;;;;12.70;1.45;;;22.70;64.00;;;;;;6325748;28;20163;-81
2022/06/22 05:14:58;;;;;;;2.67;1.08;;;22.80;64.20;;;;;;6325975;28;20070;-80
2022/06/22 05:18:03;;;;;;;6.57;1.48;;;22.80;63.60;;;;;;6331808;23;20052;-76
2022/06/22 05:21:12;;;;;;;3.03;1.33;;;22.90;63.70;;;;;;6295576;28;20051;-77
2022/06/22 05:24:21;;;;;;;2.53;1.10;;;22.90;65.10;;;;;;6298754;28;20044;-77
2022/06/22 05:27:27;;;;;;;5.95;1.50;;;22.80;64.90;;;;;;6310824;28;20052;-77
2022/06/22 05:30:36;;;;;;;9.23;1.75;;;22.80;64.60;;;;;;6325864;28;20063;-77
2022/06/22 05:33:42;;;;;;;4.82;1.35;;;22.70;64.90;;;;;;6326446;28;20044;-77
2022/06/22 05:36:49;;;;;;;1.95;0.98;;;22.80;64.60;;;;;;6326213;28;20575;-77
2022/06/22 05:39:50;;;;;;;3.17;1.20;;;22.90;64.60;;;;;;6325965;28;20048;-77
2022/06/22 05:42:53;;;;;;;6.30;1.52;;;23.00;64.30;;;;;;6326194;28;20048;-77
2022/06/22 05:45:57;;;;;;;9.05;1.45;;;23.10;63.80;;;;;;6326020;28;20504;-77
2022/06/22 05:48:59;;;;;;;7.22;1.65;;;23.30;63.40;;;;;;6325861;28;20059;-77
2022/06/22 05:52:08;;;;;;;10.93;2.00;;;23.30;63.00;;;;;;6328418;28;20051;-77
2022/06/22 05:55:15;;;;;;;2.50;1.20;;;23.40;62.50;;;;;;6328266;28;20405;-77
2022/06/22 05:58:24;;;;;;;2.97;1.25;;;23.60;62.20;;;;;;6326174;28;20420;-76
2022/06/22 06:01:33;;;;;;;5.30;1.52;;;23.70;61.80;;;;;;6326027;28;20505;-77
2022/06/22 06:04:40;;;;;;;4.32;1.95;;;23.80;60.90;;;;;;6326390;28;20040;-77
2022/06/22 06:07:46;;;;;;;5.82;1.60;;;23.90;60.10;;;;;;6326041;28;20052;-77
2022/06/22 06:10:48;;;;;;;5.15;1.65;;;23.90;60.70;;;;;;6328567;28;20052;-78
2022/06/22 06:13:58;;;;;;;5.15;1.13;;;23.80;60.80;;;;;;6328045;28;20619;-78
2022/06/22 06:17:05;;;;;;;7.57;1.75;;;23.60;61.30;;;;;;6327906;28;20101;-79
2022/06/22 06:20:22;;;;;;;1.63;0.88;;;23.40;62.30;;;;;;6323589;28;20040;-77
2022/06/22 06:23:34;;;;;;;2.13;1.30;;;23.40;62.00;;;;;;6324103;28;20504;-77
2022/06/22 06:30:06;;;;;;;2.75;1.33;;;23.00;67.80;;;;;;6317021;28;20040;-77
2022/06/22 06:33:17;;;;;;;5.40;1.50;;;22.90;67.30;;;;;;6323842;28;20055;-77
2022/06/22 06:36:26;;;;;;;3.38;1.20;;;22.60;70.20;;;;;;6297251;28;20040;-77
2022/06/22 06:39:35;;;;;;;4.93;1.10;;;22.60;73.70;;;;;;6298601;28;20055;-79
2022/06/22 06:42:42;;;;;;;3.45;1.23;;;22.60;75.30;;;;;;6298922;28;20037;-78
2022/06/22 06:45:43;;;;;;;1.90;1.38;;;22.50;76.00;;;;;;6307009;28;20501;-77
2022/06/22 06:48:53;;;;;;;6.97;1.15;;;22.40;74.80;;;;;;6318797;28;20521;-77
2022/06/22 06:51:57;;;;;;;4.18;1.65;;;22.20;74.70;;;;;;6315326;28;20048;-77
2022/06/22 06:55:04;;;;;;;1.83;1.20;;;22.20;76.30;;;;;;6322461;28;20048;-77
2022/06/22 06:58:15;;;;;;;6.93;1.88;;;22.00;77.80;;;;;;6322336;28;20040;-77
2022/06/22 07:01:21;;;;;;;3.40;0.85;;;22.00;79.40;;;;;;6315433;28;20055;-78
2022/06/22 07:04:28;;;;;;;4.75;1.50;;;21.90;78.40;;;;;;6323392;28;20390;-80
2022/06/22 07:07:38;;;;;;;5.47;1.30;;;21.90;79.30;;;;;;6324712;28;20131;-80
2022/06/22 07:10:44;;;;;;;5.18;1.55;;;22.10;78.20;;;;;;6324160;28;20051;-78
2022/06/22 07:13:49;;;;;;;3.78;1.92;;;22.40;77.00;;;;;;6323264;28;20040;-79
2022/06/22 07:16:54;;;;;;;5.95;1.55;;;22.80;75.20;;;;;;6323264;28;20086;-78
2022/06/22 07:20:00;;;;;;;7.15;1.45;;;23.00;74.40;;;;;;6323217;28;20501;-78
2022/06/22 07:23:11;;;;;;;2.28;1.40;;;23.10;75.00;;;;;;6322793;28;20428;-78
2022/06/22 07:26:23;;;;;;;4.18;1.30;;;23.30;75.00;;;;;;6321924;28;20043;-78
2022/06/22 07:29:32;;;;;;;4.80;1.50;;;23.30;72.70;;;;;;6313450;28;20052;-78
2022/06/22 07:32:39;;;;;;;5.55;1.50;;;23.20;72.50;;;;;;6321820;28;20047;-78
2022/06/22 07:35:46;;;;;;;8.07;1.30;;;23.20;72.30;;;;;;6322473;28;20517;-77
2022/06/22 07:38:54;;;;;;;6.47;1.45;;;23.10;72.60;;;;;;6322093;28;20056;-78
2022/06/22 07:41:59;;;;;;;3.70;0.82;;;23.10;72.20;;;;;;6323599;28;20039;-78
2022/06/22 07:45:01;;;;;;;4.22;1.27;;;23.20;72.50;;;;;;6321914;28;20425;-78
2022/06/22 07:48:10;;;;;;;4.40;1.20;;;23.30;70.40;;;;;;6320795;28;20047;-77
2022/06/22 07:51:19;;;;;;;4.90;1.33;;;23.30;70.60;;;;;;6321116;28;20417;-78
2022/06/22 07:54:27;;;;;;;4.60;1.40;;;23.30;69.80;;;;;;6317799;28;20036;-78
2022/06/22 07:57:35;;;;;;;;;;;23.40;69.50;;;;;;6318001;28;20048;-78
2022/06/22 08:00:40;;;;;;;7.38;1.70;;;23.50;69.30;;;;;;6310150;28;20640;-77
2022/06/22 08:03:46;;;;;;;10.10;1.50;;;23.60;68.80;;;;;;6296409;28;20174;-78
2022/06/22 08:06:53;;;;;;;4.03;1.58;;;23.80;68.10;;;;;;6296866;28;20052;-77
2022/06/22 08:10:01;;;;;;;4.47;1.65;;;23.90;69.60;;;;;;6296648;28;20058;-77
2022/06/22 08:13:09;;;;;;;2.40;1.55;;;24.20;68.70;;;;;;6296303;28;20593;-78
2022/06/22 08:16:19;;;;;;;4.18;1.55;;;24.60;67.20;;;;;;6296736;28;20055;-78
2022/06/22 08:19:21;;;;;;;3.08;1.42;;;24.80;65.10;;;;;;6295846;28;20052;-77
2022/06/22 08:22:23;;;;;;;5.25;1.55;;;25.00;64.90;;;;;;6296398;28;20131;-79
2022/06/22 08:25:25;;;;;;;5.10;1.38;;;25.10;63.90;;;;;;6297427;28;20055;-78
2022/06/22 08:28:29;;;;;;;6.32;1.48;;;25.00;63.90;;;;;;6304208;28;20505;-78
2022/06/22 08:31:37;;;;;;;9.27;1.45;;;25.10;63.60;;;;;;6302862;28;20053;-78
2022/06/22 08:34:43;;;;;;;5.35;1.63;;;25.20;63.10;;;;;;6295868;28;20561;-77
2022/06/22 08:37:50;;;;;;;6.25;1.55;;;25.30;62.50;;;;;;6295713;28;20044;-77
2022/06/22 08:41:00;;;;;;;5.30;1.60;;;25.40;62.20;;;;;;6318155;28;20054;-78
2022/06/22 08:44:10;;;;;;;4.57;1.58;;;25.50;61.90;;;;;;6320832;28;20047;-78
2022/06/22 08:47:36;;;;;;;3.45;1.63;;;25.50;62.10;;;;;;6321381;28;20212;-77
2022/06/22 08:51:14;;;;;;;7.57;2.20;;;25.30;62.20;;;;;;6319682;28;20052;-78
2022/06/22 08:54:42;;;;;;;8.50;1.95;;;25.30;62.60;;;;;;6319759;28;20044;-78
2022/06/22 08:58:01;;;;;;;10.85;2.35;;;25.10;67.00;;;;;;6321001;28;20051;-77
2022/06/22 09:01:12;;;;;;;3.25;1.70;;;24.70;70.30;;;;;;6317012;28;20055;-77
2022/06/22 09:04:36;;;;;;;22.92;2.85;;;24.30;74.10;;;;;;6324691;28;20531;-77
2022/06/22 09:08:09;;;;;;;7.25;2.17;;;23.90;77.50;;;;;;6325036;28;20055;-77
2022/06/22 09:11:19;;;;;;;11.10;2.50;;;23.80;79.70;;;;;;6268207;28;20530;-77
2022/06/22 09:14:36;;;;;;;10.00;3.38;;;23.60;81.60;;;;;;6323786;28;20051;-76
2022/06/22 09:18:02;;;;;;;7.82;1.95;;;23.20;83.50;;;;;;6323609;28;20036;-76
2022/06/22 09:21:17;;;;;;;4.80;2.20;;;22.90;84.90;;;;;;6324294;28;20050;-77
2022/06/22 09:24:22;;;;;;;7.10;2.75;;;22.80;86.80;;;;;;6324689;28;20044;-76
2022/06/22 09:27:35;;;;;;;4.78;2.50;;;22.60;87.00;;;;;;6323725;28;20497;-76
2022/06/22 09:30:54;;;;;;;7.95;2.40;;;22.60;88.90;;;;;;6314927;28;20060;-76
2022/06/22 09:34:10;;;;;;;8.38;2.40;;;22.60;90.00;;;;;;6323238;28;20508;-76
2022/06/22 09:37:34;;;;;;;8.70;2.50;;;22.60;90.20;;;;;;6323340;28;20044;-77
2022/06/22 09:40:46;;;;;;;7.55;2.90;;;22.70;89.40;;;;;;6323062;28;20133;-77
2022/06/22 09:44:26;;;;;;;6.00;2.53;;;22.70;88.70;;;;;;6323741;28;20046;-76
2022/06/22 09:47:53;;;;;;;3.55;2.17;;;22.80;88.50;;;;;;6323751;28;20177;-76
2022/06/22 09:51:14;;;;;;;7.40;2.63;;;22.80;88.80;;;;;;6313956;28;20067;-76
2022/06/22 09:58:41;;;;;;;6.97;2.80;;;22.90;88.80;;;;;;6309125;28;20048;-77
2022/06/22 10:01:52;;;;;;;5.47;2.78;;;23.10;89.10;;;;;;6318458;28;20048;-76
2022/06/22 10:05:31;;;;;;;4.95;2.60;;;23.20;88.70;;;;;;6322806;28;20060;-76
2022/06/22 10:08:50;;;;;;;8.88;3.35;;;23.40;88.20;;;;;;6322532;28;20086;-77
2022/06/22 10:12:03;;;;;;;8.15;2.33;;;23.60;87.60;;;;;;6321484;28;20184;-77
2022/06/22 10:15:28;;;;;;;5.90;2.40;;;23.90;85.50;;;;;;6323104;28;20181;-76
2022/06/22 10:18:42;;;;;;;9.35;3.00;;;24.20;83.10;;;;;;6322400;28;20082;-77
2022/06/22 10:21:57;;;;;;;3.78;2.30;;;24.40;81.80;;;;;;6322587;28;20715;-77
2022/06/22 10:25:37;;;;;;;12.55;2.90;;;24.50;81.30;;;;;;6322444;28;20127;-77
2022/06/22 10:29:16;;;;;;;6.65;2.55;;;24.80;80.90;;;;;;6315265;28;20060;-77
2022/06/22 10:32:29;;;;;;;;;;;25.20;80.60;;;;;;6297569;28;20139;-77
2022/06/22 10:35:48;;;;;;;3.78;2.30;;;25.50;80.40;;;;;;6304055;28;19920;-78
2022/06/22 10:39:19;;;;;;;8.32;2.22;;;25.80;79.40;;;;;;6321835;28;20047;-77
2022/06/22 10:46:12;;;;;;;5.63;2.28;;;26.10;78.60;;;;;;6244178;28;20586;-76
2022/06/22 10:49:39;;;;;;;9.23;3.58;;;26.30;77.50;;;;;;6243485;28;20049;-77
2022/06/22 10:53:15;;;;;;;10.73;3.38;;;26.60;76.30;;;;;;6323584;28;20079;-77
2022/06/22 10:56:31;;;;;;;5.70;3.17;;;26.90;76.20;;;;;;6314158;28;20123;-77
2022/06/22 10:59:59;;;;;;;7.40;3.05;;;26.90;76.30;;;;;;6316550;28;20141;-78
2022/06/22 11:03:48;;;;;;;9.93;2.80;;;26.90;77.20;;;;;;6299607;28;20055;-78
2022/06/22 11:07:18;;;;;;;9.02;2.60;;;26.90;77.70;;;;;;6299820;28;20049;-77
2022/06/22 11:10:36;;;;;;;11.18;3.78;;;27.00;77.60;;;;;;6296219;28;20167;-78
2022/06/22 11:14:16;;;;;;;15.05;3.42;;;27.10;77.40;;;;;;6296605;28;20105;-78
2022/06/22 11:32:26;;;;;;;8.27;5.00;;;27.10;76.90;;;;;;6204513;28;20046;-83
2022/06/22 11:36:01;;;;;;;7.35;4.47;;;27.00;78.40;;;;;;6190878;28;20046;-85
2022/06/22 11:39:54;;;;;;;12.45;5.28;;;26.90;78.50;;;;;;6164072;28;20066;-81
2022/06/22 11:47:41;;;;;;;10.15;5.63;;;26.50;81.80;;;;;;6124032;28;20035;-83
2022/06/22 11:50:57;;;;;;;11.73;5.47;;;26.30;83.20;;;;;;6124175;29;20083;-84
2022/06/22 11:54:25;;;;;;;10.65;5.03;;;26.20;84.80;;;;;;6176748;28;20053;-83
2022/06/22 11:57:51;;;;;;;14.00;5.35;;;26.40;84.20;;;;;;6207751;28;20049;-84
2022/06/22 12:01:16;;;;;;;16.20;5.80;;;26.50;85.90;;;;;;6207027;28;20070;-81
2022/06/22 12:04:42;;;;;;;8.70;5.20;;;26.80;85.80;;;;;;6198911;28;20113;-83
2022/06/22 12:08:09;;;;;;;11.00;5.07;;;26.90;85.50;;;;;;6161296;28;20117;-85
2022/06/22 12:11:16;;;;;;;7.45;4.43;;;27.10;85.50;;;;;;6156784;28;20097;-85
2022/06/22 12:18:17;;;;;;;13.07;4.78;;;27.40;84.50;;;;;;6197790;28;20042;-82
2022/06/22 12:21:34;;;;;;;14.10;4.95;;;27.70;83.80;;;;;;6197975;28;20042;-83
2022/06/22 12:24:52;;;;;;;5.78;4.45;;;27.80;82.30;;;;;;6198331;28;20054;-81
2022/06/22 12:28:09;;;;;;;17.45;5.88;;;27.80;84.00;;;;;;6206877;28;20393;-82
2022/06/22 12:31:14;;;;;;;10.55;3.95;;;27.40;84.50;;;;;;6215429;28;20460;-84
2022/06/22 12:34:25;;;;;;;12.80;5.63;;;26.60;88.40;;;;;;6225430;28;20096;-83
2022/06/22 12:53:43;;;;;;;7.22;4.97;;;24.90;93.30;;;;;;6296387;28;20052;-79
2022/06/22 12:56:53;;;;;;;15.23;6.20;;;24.80;93.60;;;;;;6295775;28;20118;-79
2022/06/22 12:59:59;;;;;;;10.75;5.85;;;24.80;93.70;;;;;;6281156;28;20763;-80
2022/06/22 13:03:03;;;;;;;17.23;6.07;;;24.90;93.70;;;;;;6273896;28;20087;-80
2022/06/22 13:06:05;;;;;;;9.30;5.65;;;25.30;93.50;;;;;;6271383;28;20052;-79
2022/06/22 13:28:39;;;;;;;13.98;7.07;;;26.40;91.20;;;;;;6847885;22;20048;-78
2022/06/22 13:31:51;;;;;;;10.43;6.07;;;26.60;91.30;;;;;;6275232;28;20056;-78
2022/06/22 13:34:58;;;;;;;18.63;6.13;;;26.80;91.00;;;;;;6272079;28;20175;-78
2022/06/22 13:38:11;;;;;;;18.77;6.03;;;26.90;90.20;;;;;;6270442;28;20514;-78
2022/06/22 13:41:26;;;;;;;12.43;6.55;;;26.90;90.50;;;;;;6271742;28;20052;-78
2022/06/22 13:45:04;;;;;;;18.17;5.78;;;27.00;89.50;;;;;;6272159;28;20110;-78
2022/06/22 13:48:28;;;;;;;8.20;5.18;;;26.80;89.80;;;;;;6275722;28;20563;-78
2022/06/22 13:51:51;;;;;;;10.02;5.95;;;26.60;90.50;;;;;;6276058;28;20053;-78
2022/06/22 13:55:22;;;;;;;9.43;5.57;;;26.30;90.50;;;;;;6275375;28;20045;-78
2022/06/22 13:58:30;;;;;;;13.05;5.32;;;25.80;91.60;;;;;;6265438;28;20065;-78
2022/06/22 14:01:38;;;;;;;14.88;6.90;;;25.40;92.40;;;;;;6273444;28;20049;-78
2022/06/22 14:04:45;;;;;;;10.95;5.95;;;25.30;92.60;;;;;;6275564;28;20052;-78
2022/06/22 14:07:52;;;;;;;8.25;6.07;;;25.40;93.10;;;;;;6275009;28;20135;-78
2022/06/22 14:10:57;;;;;;;16.48;7.07;;;25.30;93.20;;;;;;6276034;28;20057;-78
2022/06/22 14:14:04;;;;;;;11.73;6.60;;;25.30;93.60;;;;;;6275504;28;20132;-78
2022/06/22 14:17:12;;;;;;;12.33;6.83;;;25.20;93.30;;;;;;6274753;28;20128;-78
2022/06/22 14:20:20;;;;;;;8.82;6.88;;;24.90;94.60;;;;;;6278818;28;20160;-79
2022/06/22 14:23:43;;;;;;;8.98;6.63;;;24.60;95.90;;;;;;6276039;28;20057;-83
2022/06/22 14:27:15;;;;;;;14.35;6.95;;;24.40;97.50;;;;;;6271510;28;20041;-81
2022/06/22 14:30:26;;;;;;;11.75;6.53;;;24.40;98.70;;;;;;6258836;28;20084;-82
2022/06/22 14:33:57;;;;;;;12.60;6.00;;;24.60;98.40;;;;;;6270405;28;20099;-81
2022/06/22 14:55:10;;;;;;;6.25;3.70;;;25.30;95.00;;;;;;6292395;28;20057;-82
2022/06/22 14:58:19;;;;;;;7.57;3.72;;;25.60;94.40;;;;;;6279938;28;20047;-82
2022/06/22 15:01:27;;;;;;;7.18;3.90;;;25.90;93.60;;;;;;6279983;28;20052;-81
2022/06/22 15:04:39;;;;;;;13.07;5.10;;;25.90;93.30;;;;;;6279893;28;20075;-82
2022/06/22 15:07:49;;;;;;;8.32;3.53;;;26.20;92.80;;;;;;6288125;28;20049;-83
2022/06/22 15:10:59;;;;;;;13.98;3.78;;;26.40;92.00;;;;;;6283994;28;20045;-83
2022/06/22 15:14:03;;;;;;;7.93;3.45;;;26.40;91.40;;;;;;6294290;28;20052;-82
2022/06/22 15:17:11;;;;;;;11.65;3.47;;;26.60;91.20;;;;;;6293274;28;20072;-82
2022/06/22 15:20:21;;;;;;;14.05;4.28;;;26.70;90.90;;;;;;6292022;28;20052;-82
2022/06/22 15:23:27;;;;;;;10.07;3.78;;;26.70;90.60;;;;;;6291106;28;20560;-83
2022/06/22 15:26:37;;;;;;;10.07;3.15;;;26.70;91.00;;;;;;6290820;28;20074;-81
2022/06/22 15:29:48;;;;;;;15.52;3.65;;;27.00;90.70;;;;;;6272121;28;20046;-82
2022/06/22 15:33:03;;;;;;;6.57;3.13;;;27.10;89.60;;;;;;6270019;28;20047;-83
2022/06/22 15:36:09;;;;;;;6.60;3.25;;;27.20;90.00;;;;;;6270327;28;20072;-82
2022/06/22 15:39:24;;;;;;;13.85;4.82;;;27.40;90.00;;;;;;6267322;28;20046;-82
2022/06/22 15:42:33;;;;;;;9.05;3.50;;;27.60;89.10;;;;;;6267345;28;20049;-83
2022/06/22 15:45:41;;;;;;;11.57;2.63;;;27.70;88.60;;;;;;6270036;28;20074;-83
2022/06/22 15:48:53;;;;;;;11.30;3.00;;;27.70;87.10;;;;;;6267566;28;20053;-82
2022/06/22 15:52:00;;;;;;;13.57;3.95;;;27.60;86.00;;;;;;6268556;28;20103;-83
2022/06/22 15:55:06;;;;;;;9.27;2.80;;;27.40;87.10;;;;;;6264527;28;20045;-82
2022/06/22 15:58:17;;;;;;;6.22;2.75;;;27.30;87.00;;;;;;6272597;28;20288;-82
2022/06/22 16:01:25;;;;;;;11.07;2.45;;;27.10;87.50;;;;;;6266552;28;20075;-83
2022/06/22 16:04:37;;;;;;;6.35;3.20;;;26.90;87.50;;;;;;6288968;28;20053;-83
2022/06/22 16:27:02;;;;;;;8.82;2.50;;;26.10;90.60;;;;;;6232702;28;20061;-82
2022/06/22 16:30:06;;;;;;;14.32;2.92;;;25.90;90.50;;;;;;6289564;28;20051;-83
2022/06/22 16:33:11;;;;;;;11.48;3.17;;;25.70;91.00;;;;;;6293912;28;20053;-83
2022/06/22 16:36:24;;;;;;;15.77;3.15;;;25.60;91.50;;;;;;6283110;28;20047;-84
2022/06/22 16:52:49;;;;;;;6.22;2.55;;;25.90;90.70;;;;;;6288166;28;20029;-83
2022/06/22 16:56:03;;;;;;;6.22;2.70;;;25.70;90.40;;;;;;6292400;28;20048;-83
2022/06/22 16:59:33;;;;;;;7.07;3.95;;;25.60;90.80;;;;;;6279275;28;20513;-84
2022/06/22 17:02:43;;;;;;;8.43;3.08;;;25.50;90.80;;;;;;6286807;28;20064;-82
2022/06/22 17:05:51;;;;;;;5.25;3.28;;;25.40;91.10;;;;;;6277825;28;20045;-82
2022/06/22 17:09:03;;;;;;;7.88;3.75;;;25.40;91.50;;;;;;6277289;28;20107;-83
2022/06/22 17:12:08;;;;;;;8.52;3.63;;;25.30;91.80;;;;;;6301376;28;20041;-82
2022/06/22 17:15:11;;;;;;;7.38;3.70;;;25.30;92.00;;;;;;6306245;28;20051;-84
2022/06/22 17:18:31;;;;;;;8.80;4.00;;;25.30;92.10;;;;;;6304162;28;20098;-84
2022/06/22 17:21:42;;;;;;;7.38;3.97;;;25.20;92.50;;;;;;6304571;28;20047;-84
2022/06/22 17:24:51;;;;;;;7.07;3.97;;;25.30;92.70;;;;;;6304594;28;20509;-83
2022/06/22 17:28:01;;;;;;;7.28;3.63;;;25.30;92.80;;;;;;6304929;28;20113;-82
2022/06/22 17:31:09;;;;;;;6.88;3.92;;;25.40;92.70;;;;;;6307315;28;20135;-81
2022/06/22 17:34:25;;;;;;;8.70;4.43;;;25.50;92.50;;;;;;6305076;28;20075;-84
2022/06/22 17:37:43;;;;;;;11.80;3.75;;;25.70;92.40;;;;;;6304701;28;20501;-84
2022/06/22 17:40:56;;;;;;;10.93;4.00;;;25.80;92.00;;;;;;6304262;28;20597;-83
2022/06/22 17:44:08;;;;;;;16.13;4.25;;;25.90;91.80;;;;;;6304094;28;20095;-82
2022/06/22 17:47:19;;;;;;;9.43;4.03;;;25.90;91.60;;;;;;6304791;28;20041;-83
2022/06/22 17:50:26;;;;;;;9.57;3.85;;;25.90;91.50;;;;;;6305664;28;20044;-82
2022/06/22 17:53:31;;;;;;;7.80;3.63;;;25.90;91.60;;;;;;6305402;28;20040;-83
2022/06/22 17:56:32;;;;;;;7.13;3.65;;;25.90;91.60;;;;;;6306231;28;20135;-83
2022/06/22 17:59:42;;;;;;;6.82;3.47;;;25.90;91.70;;;;;;6309085;28;20536;-82
2022/06/22 18:02:50;;;;;;;10.55;3.90;;;25.90;91.80;;;;;;6312435;28;20071;-85
2022/06/22 18:06:05;;;;;;;9.93;4.22;;;25.80;91.80;;;;;;6294819;28;20052;-85
2022/06/22 18:09:18;;;;;;;7.43;3.78;;;25.80;91.90;;;;;;6297851;28;20041;-84
2022/06/22 18:12:21;;;;;;;8.70;4.90;;;25.80;92.00;;;;;;6297096;28;20049;-85
2022/06/22 18:15:27;;;;;;;7.60;4.03;;;25.70;92.00;;;;;;6305921;28;20060;-85
2022/06/22 18:18:35;;;;;;;9.98;7.00;;;25.70;92.00;;;;;;6304611;28;20046;-82
2022/06/22 18:21:40;;;;;;;;;;;25.60;92.10;;;;;;6306004;28;20425;-83
2022/06/22 18:24:49;;;;;;;8.55;4.93;;;25.60;92.20;;;;;;6304565;28;19920;-84
2022/06/22 18:27:57;;;;;;;8.38;5.55;;;25.50;92.30;;;;;;6298671;28;20043;-83
2022/06/22 18:31:04;;;;;;;8.82;5.28;;;25.50;92.70;;;;;;6290207;28;20052;-82
2022/06/22 18:34:12;;;;;;;14.33;5.37;;;25.40;92.90;;;;;;6303338;28;20055;-84
2022/06/22 18:37:20;;;;;;;8.85;5.85;;;25.30;93.10;;;;;;6303798;28;20048;-85